Time;durP1;ratioP1;P1;durP2;ratioP2;P2;SDS_P1;SDS_P2;PMS_P1;PMS_P2;Temp;Humidity;BMP_temperature;BMP_pressure;BME280_temperature;BME280_humidity;BME280_pressure;Samples;Min_cycle;Max_cycle;Signal;HPM_P1;HPM_P2
2022/01/16 00:06:18;;;;;;;55.55;27.27;;;2.10;99.90;;;;;;5077507;28;20488;-78
2022/01/16 00:08:44;;;;;;;53.35;29.10;;;2.00;99.90;;;;;;5071765;28;20055;-81
2022/01/16 00:11:12;;;;;;;57.38;28.27;;;2.00;99.90;;;;;;5071683;28;20050;-78
2022/01/16 00:13:37;;;;;;;55.50;28.33;;;2.10;99.90;;;;;;5074807;28;20050;-73
2022/01/16 00:16:03;;;;;;;58.22;29.75;;;2.00;99.90;;;;;;5074031;28;20052;-78
2022/01/16 00:18:40;;;;;;;60.65;29.15;;;2.10;99.90;;;;;;5074755;28;20128;-77
2022/01/16 00:21:06;;;;;;;64.93;30.25;;;2.00;99.90;;;;;;5075462;28;20047;-71
2022/01/16 00:23:32;;;;;;;61.40;30.50;;;2.10;99.90;;;;;;5064516;28;20497;-71
2022/01/16 00:25:57;;;;;;;57.95;29.45;;;2.10;99.90;;;;;;5074730;28;20040;-72
2022/01/16 00:28:24;;;;;;;62.08;30.63;;;2.10;99.90;;;;;;5074470;28;20619;-79
2022/01/16 00:30:51;;;;;;;62.13;30.23;;;2.10;99.90;;;;;;5074340;28;20040;-79
2022/01/16 00:33:17;;;;;;;62.13;29.83;;;2.10;99.90;;;;;;5069204;28;20473;-78
2022/01/16 00:35:42;;;;;;;64.75;31.98;;;2.10;99.90;;;;;;5055033;28;20047;-71
2022/01/16 00:38:09;;;;;;;69.93;33.75;;;2.20;99.90;;;;;;5072591;28;20096;-78
2022/01/16 00:40:35;;;;;;;65.68;33.35;;;2.20;99.90;;;;;;5075204;28;20055;-72
2022/01/16 00:43:02;;;;;;;72.88;35.97;;;2.20;99.90;;;;;;5083498;28;20051;-72
2022/01/16 00:45:34;;;;;;;71.38;33.90;;;2.20;99.90;;;;;;5074740;28;20053;-79
2022/01/16 00:48:03;;;;;;;71.28;34.10;;;2.20;99.90;;;;;;5057248;28;20059;-79
2022/01/16 00:50:30;;;;;;;70.90;33.33;;;2.20;99.90;;;;;;5074036;28;20051;-80
2022/01/16 00:52:55;;;;;;;68.43;33.85;;;2.20;99.90;;;;;;5057337;28;20105;-79
2022/01/16 00:55:21;;;;;;;67.10;32.88;;;2.20;99.90;;;;;;5058169;28;20055;-81
2022/01/16 00:57:46;;;;;;;68.03;32.92;;;2.20;99.90;;;;;;5072854;28;20115;-79
2022/01/16 01:00:12;;;;;;;71.20;32.70;;;2.20;99.90;;;;;;5074531;28;20047;-80
2022/01/16 01:02:38;;;;;;;68.18;33.63;;;2.20;99.90;;;;;;5080877;28;20525;-80
2022/01/16 01:05:04;;;;;;;68.18;32.88;;;2.20;99.90;;;;;;5074138;28;20055;-77
2022/01/16 01:07:30;;;;;;;74.47;32.58;;;2.20;99.90;;;;;;5073536;28;20519;-79
2022/01/16 01:09:55;;;;;;;66.90;32.97;;;2.20;99.90;;;;;;5066378;28;20052;-79
2022/01/16 01:12:28;;;;;;;64.07;31.15;;;2.20;99.90;;;;;;5066035;28;20054;-79
2022/01/16 01:15:08;;;;;;;69.25;30.85;;;2.20;99.90;;;;;;5066891;28;20053;-80
2022/01/16 01:17:46;;;;;;;73.72;33.40;;;2.20;99.90;;;;;;5050314;28;20036;-81
2022/01/16 01:20:17;;;;;;;64.97;29.80;;;2.20;99.90;;;;;;5073185;28;20040;-80
2022/01/16 01:22:44;;;;;;;72.27;32.23;;;2.20;99.90;;;;;;5065042;28;20128;-81
2022/01/16 01:25:14;;;;;;;70.50;32.60;;;2.20;99.90;;;;;;5042754;28;20298;-79
2022/01/16 01:27:41;;;;;;;68.28;31.02;;;2.20;99.90;;;;;;5072891;28;20119;-77
2022/01/16 01:30:14;;;;;;;72.80;33.10;;;2.20;99.90;;;;;;5073773;28;20075;-77
2022/01/16 01:32:42;;;;;;;69.05;30.15;;;2.20;99.90;;;;;;5072681;28;20089;-77
2022/01/16 01:35:11;;;;;;;73.40;31.73;;;2.20;99.90;;;;;;5073667;28;20484;-73
2022/01/16 01:37:37;;;;;;;76.85;32.40;;;2.20;99.90;;;;;;5073255;28;20492;-73
2022/01/16 01:40:05;;;;;;;78.68;32.53;;;2.20;99.90;;;;;;5072898;28;20051;-81
2022/01/16 01:42:34;;;;;;;75.53;31.60;;;2.20;99.90;;;;;;5073263;28;20047;-81
2022/01/16 01:53:16;;;;;;;83.00;33.20;;;2.30;99.90;;;;;;5069612;28;20044;-81
2022/01/16 01:55:43;;;;;;;96.03;34.60;;;2.20;99.90;;;;;;5073547;28;20434;-81
2022/01/16 01:58:10;;;;;;;98.53;33.03;;;2.20;99.90;;;;;;5072954;28;20032;-82
2022/01/16 02:00:38;;;;;;;89.82;34.30;;;2.30;99.90;;;;;;5072556;28;20051;-70
2022/01/16 02:03:19;;;;;;;101.25;35.90;;;2.20;99.90;;;;;;5073168;28;20127;-80
2022/01/16 02:05:45;;;;;;;76.13;32.55;;;2.30;99.90;;;;;;5056347;28;20128;-82
2022/01/16 02:08:11;;;;;;;88.75;34.13;;;2.20;99.90;;;;;;5072052;28;20032;-83
2022/01/16 02:10:38;;;;;;;95.93;35.15;;;2.20;99.90;;;;;;5073537;28;20044;-76
2022/01/16 02:13:07;;;;;;;87.72;34.05;;;2.20;99.90;;;;;;5072747;28;20055;-82
2022/01/16 02:34:39;;;;;;;100.28;37.17;;;2.30;99.90;;;;;;5073199;28;20040;-71
2022/01/16 02:37:09;;;;;;;130.90;37.10;;;2.30;99.90;;;;;;5063433;28;20039;-77
2022/01/16 02:39:37;;;;;;;117.68;38.75;;;2.30;99.90;;;;;;5072599;28;20037;-79
2022/01/16 02:42:08;;;;;;;114.72;37.70;;;2.30;99.90;;;;;;5059453;28;20044;-71
2022/01/16 02:44:42;;;;;;;106.45;36.97;;;2.30;99.90;;;;;;5076200;28;20058;-79
2022/01/16 02:47:12;;;;;;;105.75;37.22;;;2.30;99.90;;;;;;5076670;28;20109;-79
2022/01/16 02:49:40;;;;;;;101.78;35.03;;;2.30;99.90;;;;;;5076217;28;20044;-82
2022/01/16 02:52:12;;;;;;;116.20;37.35;;;2.30;99.90;;;;;;5076856;28;20568;-73
2022/01/16 02:54:40;;;;;;;123.82;36.80;;;2.40;99.90;;;;;;5058582;28;20439;-79
2022/01/16 02:57:09;;;;;;;113.55;36.80;;;2.30;99.90;;;;;;5065009;28;20111;-81
2022/01/16 02:59:36;;;;;;;99.80;35.33;;;2.40;99.90;;;;;;5060399;28;20511;-81
2022/01/16 03:02:02;;;;;;;102.10;35.92;;;2.30;99.90;;;;;;5059783;28;20039;-73
2022/01/16 03:04:29;;;;;;;107.82;35.85;;;2.40;99.90;;;;;;5075790;28;20077;-81
2022/01/16 03:06:57;;;;;;;96.97;35.80;;;2.40;99.90;;;;;;5059620;28;20092;-82
2022/01/16 03:09:24;;;;;;;104.70;36.25;;;2.40;99.90;;;;;;5076324;28;20076;-81
2022/01/16 03:11:50;;;;;;;95.00;34.47;;;2.40;99.90;;;;;;5075693;28;20123;-81
2022/01/16 03:14:19;;;;;;;87.97;32.25;;;2.40;99.90;;;;;;5076341;28;20066;-77
2022/01/16 03:16:49;;;;;;;98.05;33.90;;;2.40;99.90;;;;;;5075665;28;20463;-82
2022/01/16 03:22:03;;;;;;;87.13;32.10;;;2.50;99.90;;;;;;5075421;28;20044;-78
2022/01/16 03:24:36;;;;;;;102.90;35.10;;;2.50;99.90;;;;;;5074055;28;20044;-75
2022/01/16 03:27:06;;;;;;;102.57;36.92;;;2.50;99.90;;;;;;5075782;28;20089;-80
2022/01/16 03:29:31;;;;;;;99.28;35.60;;;2.50;99.90;;;;;;5058975;28;20044;-78
2022/01/16 03:31:59;;;;;;;100.65;34.95;;;2.50;99.90;;;;;;5075191;28;20040;-72
2022/01/16 03:34:25;;;;;;;98.32;36.38;;;2.50;99.90;;;;;;5058964;28;20044;-71
2022/01/16 03:36:51;;;;;;;98.10;35.33;;;2.50;99.90;;;;;;5075644;28;20106;-77
2022/01/16 03:39:17;;;;;;;95.07;35.45;;;2.50;99.90;;;;;;5075404;28;20480;-70
2022/01/16 03:41:43;;;;;;;111.97;38.00;;;2.50;99.90;;;;;;5072274;28;20041;-77
2022/01/16 03:44:08;;;;;;;96.03;35.47;;;2.60;99.90;;;;;;5072748;28;20044;-77
2022/01/16 03:46:40;;;;;;;96.10;36.35;;;2.60;99.90;;;;;;5057864;28;20036;-78
2022/01/16 03:49:08;;;;;;;87.07;33.75;;;2.60;99.90;;;;;;5059099;28;20455;-77
2022/01/16 03:51:36;;;;;;;94.85;35.05;;;2.60;99.90;;;;;;5075590;28;20075;-77
2022/01/16 03:54:03;;;;;;;109.50;35.72;;;2.60;99.90;;;;;;5057497;28;20519;-76
2022/01/16 03:56:29;;;;;;;99.15;36.17;;;2.70;99.90;;;;;;5075107;28;20040;-77
2022/01/16 03:58:54;;;;;;;103.07;36.25;;;2.70;99.90;;;;;;5075864;28;20472;-78
2022/01/16 04:01:20;;;;;;;109.13;38.33;;;2.70;99.90;;;;;;5074056;28;20119;-77
2022/01/16 04:03:46;;;;;;;98.20;36.63;;;2.80;99.90;;;;;;5068789;28;20086;-77
2022/01/16 04:06:12;;;;;;;99.40;35.58;;;2.80;99.90;;;;;;5072341;28;20036;-78
2022/01/16 04:08:38;;;;;;;96.18;37.08;;;2.80;99.90;;;;;;5074767;28;20087;-69
2022/01/16 04:11:04;;;;;;;90.93;36.78;;;2.90;99.90;;;;;;5076412;28;20095;-78
2022/01/16 04:13:31;;;;;;;109.97;37.78;;;2.80;99.90;;;;;;5041296;28;20539;-78
2022/01/16 04:15:57;;;;;;;115.13;38.80;;;2.80;99.90;;;;;;5074299;28;20404;-69
2022/01/16 04:18:23;;;;;;;103.18;36.45;;;2.90;99.90;;;;;;5074944;28;20036;-77
2022/01/16 04:20:49;;;;;;;106.72;37.97;;;2.80;99.90;;;;;;5074592;28;20048;-77
2022/01/16 04:23:15;;;;;;;95.78;38.08;;;2.90;99.90;;;;;;5074595;28;20472;-80
2022/01/16 04:25:40;;;;;;;98.10;36.05;;;2.90;99.90;;;;;;5092750;28;20048;-73
2022/01/16 04:28:06;;;;;;;98.03;36.00;;;2.90;99.90;;;;;;5074583;28;20055;-78
2022/01/16 04:30:32;;;;;;;95.85;38.45;;;2.90;99.90;;;;;;5069351;28;20161;-78
2022/01/16 04:32:58;;;;;;;102.05;38.20;;;2.90;99.90;;;;;;5074884;28;20076;-74
2022/01/16 04:35:24;;;;;;;101.68;37.35;;;3.00;99.90;;;;;;5085335;28;20075;-78
2022/01/16 04:37:50;;;;;;;92.97;37.35;;;3.00;99.90;;;;;;5074258;28;20609;-78
2022/01/16 04:40:15;;;;;;;102.90;37.60;;;3.00;99.90;;;;;;5074207;28;20134;-78
2022/01/16 04:45:26;;;;;;;99.53;37.67;;;3.00;99.90;;;;;;5074069;28;20495;-73
2022/01/16 04:47:52;;;;;;;98.22;37.22;;;3.00;99.90;;;;;;5073962;28;20044;-72
2022/01/16 04:50:21;;;;;;;103.97;38.50;;;3.00;99.90;;;;;;5073730;28;20044;-72
2022/01/16 04:52:46;;;;;;;100.13;37.80;;;3.00;99.90;;;;;;5074259;28;20048;-70
2022/01/16 04:55:13;;;;;;;101.03;37.95;;;3.00;99.90;;;;;;5074405;28;20044;-83
2022/01/16 04:57:39;;;;;;;102.93;38.85;;;3.10;99.90;;;;;;5055978;28;20047;-82
2022/01/16 05:00:12;;;;;;;106.38;39.72;;;3.10;99.90;;;;;;5055470;28;20045;-73
2022/01/16 05:02:38;;;;;;;96.50;37.17;;;3.10;99.90;;;;;;5057310;28;20052;-70
2022/01/16 05:05:04;;;;;;;96.47;38.60;;;3.10;99.90;;;;;;5090960;28;20079;-82
2022/01/16 05:07:30;;;;;;;95.70;37.80;;;3.10;99.90;;;;;;5057200;28;20382;-81
2022/01/16 05:09:55;;;;;;;108.07;40.65;;;3.10;99.90;;;;;;5055760;28;20047;-80
2022/01/16 05:12:30;;;;;;;101.63;39.13;;;3.10;99.90;;;;;;5068482;28;20044;-71
2022/01/16 05:17:40;;;;;;;104.15;38.97;;;3.20;99.90;;;;;;5071951;28;20208;-76
2022/01/16 05:20:05;;;;;;;91.70;37.42;;;3.20;99.90;;;;;;5057369;28;20152;-76
2022/01/16 05:22:31;;;;;;;105.13;39.28;;;3.20;99.90;;;;;;5070815;28;20055;-77
2022/01/16 05:24:57;;;;;;;107.07;39.03;;;3.20;99.90;;;;;;5073338;28;20373;-77
2022/01/16 05:27:22;;;;;;;101.93;40.30;;;3.20;99.90;;;;;;5073382;28;20055;-78
2022/01/16 05:29:48;;;;;;;109.38;40.33;;;3.20;99.90;;;;;;5073114;28;20044;-77
2022/01/16 05:32:16;;;;;;;110.78;41.85;;;3.20;99.90;;;;;;5072837;28;20048;-78
2022/01/16 05:34:42;;;;;;;114.45;39.42;;;3.20;99.90;;;;;;5056698;28;20094;-79
2022/01/16 05:37:07;;;;;;;118.95;42.05;;;3.30;99.90;;;;;;5073854;28;20072;-77
2022/01/16 05:39:34;;;;;;;117.43;40.20;;;3.30;99.90;;;;;;5072897;28;20512;-70
2022/01/16 05:42:00;;;;;;;117.32;39.67;;;3.30;99.90;;;;;;5073625;28;20040;-71
2022/01/16 05:44:26;;;;;;;109.85;40.88;;;3.30;99.90;;;;;;5072883;28;20052;-74
2022/01/16 05:46:51;;;;;;;119.60;42.17;;;3.30;99.90;;;;;;5072789;28;20047;-78
2022/01/16 05:49:17;;;;;;;118.95;42.20;;;3.30;99.90;;;;;;5072995;28;20052;-72
2022/01/16 05:51:43;;;;;;;119.43;42.08;;;3.30;99.90;;;;;;5073560;28;20373;-79
2022/01/16 05:54:08;;;;;;;122.55;42.92;;;3.40;99.90;;;;;;5072583;28;20155;-71
2022/01/16 05:56:34;;;;;;;110.95;43.25;;;3.40;99.90;;;;;;5073578;28;20052;-79
2022/01/16 05:58:59;;;;;;;123.40;42.08;;;3.40;99.90;;;;;;5072518;28;20465;-79
2022/01/16 06:01:25;;;;;;;117.68;41.22;;;3.40;99.90;;;;;;5072923;28;20043;-79
2022/01/16 06:03:50;;;;;;;121.68;43.15;;;3.40;99.90;;;;;;5072433;28;20043;-77
2022/01/16 06:06:16;;;;;;;104.50;40.72;;;3.40;99.90;;;;;;5072241;28;20043;-72
2022/01/16 06:08:43;;;;;;;125.53;42.03;;;3.50;99.90;;;;;;5072974;28;20076;-77
2022/01/16 06:11:08;;;;;;;120.78;42.08;;;3.50;99.90;;;;;;5073454;28;20159;-80
2022/01/16 06:13:34;;;;;;;114.72;41.88;;;3.50;99.90;;;;;;5071767;28;20086;-78
2022/01/16 06:15:59;;;;;;;115.20;41.78;;;3.50;99.90;;;;;;5072973;28;20385;-79
2022/01/16 06:18:25;;;;;;;111.78;41.80;;;3.50;99.90;;;;;;5072556;28;20074;-71
2022/01/16 06:20:51;;;;;;;120.13;43.47;;;3.50;99.90;;;;;;5072314;28;20528;-82
2022/01/16 06:23:16;;;;;;;109.38;39.08;;;3.50;99.90;;;;;;5056216;28;20036;-72
2022/01/16 06:25:42;;;;;;;114.38;41.58;;;3.50;99.90;;;;;;5072885;28;20054;-82
2022/01/16 06:28:08;;;;;;;113.63;42.22;;;3.60;99.90;;;;;;5071858;28;20044;-82
2022/01/16 06:30:35;;;;;;;113.45;42.03;;;3.60;99.90;;;;;;5084003;28;20385;-77
2022/01/16 06:33:03;;;;;;;103.65;41.88;;;3.60;99.90;;;;;;5060044;28;20052;-82
2022/01/16 06:35:29;;;;;;;113.40;42.80;;;3.60;99.90;;;;;;5064548;28;20519;-81
2022/01/16 06:37:55;;;;;;;112.45;42.35;;;3.60;99.90;;;;;;5072910;28;20044;-81
2022/01/16 06:40:20;;;;;;;109.15;42.60;;;3.70;99.90;;;;;;5072487;28;20047;-82
2022/01/16 06:42:47;;;;;;;107.65;41.35;;;3.80;99.90;;;;;;5055751;28;20036;-80
2022/01/16 06:45:12;;;;;;;113.32;43.63;;;3.70;99.90;;;;;;5072254;28;20059;-80
2022/01/16 06:47:38;;;;;;;106.10;43.17;;;3.80;99.90;;;;;;5073164;28;20757;-71
2022/01/16 06:50:06;;;;;;;109.22;44.03;;;3.80;99.90;;;;;;5072118;28;20047;-74
2022/01/16 06:52:32;;;;;;;109.15;43.42;;;3.90;99.90;;;;;;5072860;28;20066;-79
2022/01/16 06:54:58;;;;;;;108.38;41.88;;;3.90;99.90;;;;;;5055396;28;20484;-73
2022/01/16 06:57:24;;;;;;;112.93;42.70;;;3.90;99.90;;;;;;5072159;28;20044;-77
2022/01/16 06:59:49;;;;;;;105.50;42.83;;;3.90;99.90;;;;;;5072318;28;20051;-78
2022/01/16 07:02:16;;;;;;;112.13;42.53;;;4.00;99.90;;;;;;5055810;28;20543;-79
2022/01/16 07:04:46;;;;;;;103.60;42.78;;;4.00;99.90;;;;;;5071900;28;20471;-80
2022/01/16 07:07:11;;;;;;;98.70;41.33;;;4.00;99.90;;;;;;5055587;28;20098;-78
2022/01/16 07:09:39;;;;;;;106.43;43.03;;;4.00;99.90;;;;;;5071148;28;20446;-73
2022/01/16 07:12:05;;;;;;;98.05;42.38;;;4.10;99.90;;;;;;5073020;28;20109;-75
2022/01/16 07:14:31;;;;;;;98.85;42.97;;;4.10;99.90;;;;;;5071872;28;20127;-79
2022/01/16 07:16:56;;;;;;;107.70;43.70;;;4.10;99.90;;;;;;5071835;28;20131;-79
2022/01/16 07:19:22;;;;;;;104.53;43.17;;;4.10;99.90;;;;;;5055437;28;20028;-81
2022/01/16 07:21:47;;;;;;;95.63;42.58;;;4.20;99.90;;;;;;5074853;28;20036;-80
2022/01/16 07:24:15;;;;;;;106.38;43.97;;;4.20;99.90;;;;;;5063506;28;20551;-80
2022/01/16 07:26:44;;;;;;;105.95;43.97;;;4.20;99.90;;;;;;5076212;28;20559;-80
2022/01/16 07:29:10;;;;;;;101.03;43.22;;;4.30;99.90;;;;;;5075551;28;20468;-79
2022/01/16 07:31:39;;;;;;;105.57;45.08;;;4.20;99.90;;;;;;5093670;28;20097;-72
2022/01/16 07:34:05;;;;;;;102.10;43.13;;;4.30;99.90;;;;;;5075829;28;20044;-78
2022/01/16 07:36:31;;;;;;;107.85;45.97;;;4.30;99.90;;;;;;5094358;28;20040;-72
2022/01/16 07:38:57;;;;;;;101.13;44.78;;;4.30;99.90;;;;;;5092830;28;20112;-73
2022/01/16 07:41:22;;;;;;;91.07;43.15;;;4.30;99.90;;;;;;5075497;28;20063;-78
2022/01/16 07:43:48;;;;;;;99.88;44.80;;;4.40;99.90;;;;;;5093803;28;20085;-77
2022/01/16 07:46:13;;;;;;;102.45;46.95;;;4.40;99.90;;;;;;5059959;28;20048;-73
2022/01/16 07:48:39;;;;;;;103.05;43.95;;;4.40;99.90;;;;;;5075098;28;20073;-78
2022/01/16 07:51:04;;;;;;;95.55;42.65;;;4.40;99.90;;;;;;5075241;28;20416;-74
2022/01/16 07:53:30;;;;;;;88.95;40.53;;;4.40;99.90;;;;;;5074519;28;20048;-75
2022/01/16 07:55:56;;;;;;;94.22;43.83;;;4.40;99.90;;;;;;5075602;28;20185;-71
2022/01/16 07:58:21;;;;;;;97.47;43.40;;;4.40;99.90;;;;;;5074931;28;20445;-75
2022/01/16 08:00:47;;;;;;;88.63;41.13;;;4.50;99.90;;;;;;5059834;28;20044;-72
2022/01/16 08:03:12;;;;;;;89.28;41.70;;;4.50;99.90;;;;;;5057291;28;20046;-74
2022/01/16 08:05:39;;;;;;;97.03;42.83;;;4.50;99.90;;;;;;5075625;28;20052;-72
2022/01/16 08:08:05;;;;;;;92.57;43.97;;;4.50;99.90;;;;;;5074562;28;20036;-72
2022/01/16 08:10:31;;;;;;;97.32;44.55;;;4.60;99.90;;;;;;5092407;28;20051;-73
2022/01/16 08:12:58;;;;;;;83.80;39.40;;;4.60;99.90;;;;;;5074646;28;20123;-73
2022/01/16 08:15:24;;;;;;;99.40;44.80;;;4.60;99.90;;;;;;5074255;28;20504;-73
2022/01/16 08:17:50;;;;;;;91.57;42.58;;;4.60;99.90;;;;;;5057489;28;20046;-75
2022/01/16 08:20:15;;;;;;;78.65;40.05;;;4.60;99.90;;;;;;5073866;28;20113;-76
2022/01/16 08:22:41;;;;;;;92.05;43.50;;;4.60;99.90;;;;;;5074156;28;20044;-76
2022/01/16 08:25:07;;;;;;;92.60;42.75;;;4.70;99.90;;;;;;5075116;28;20040;-70
2022/01/16 08:27:33;;;;;;;83.47;42.33;;;4.70;99.90;;;;;;5073506;28;20036;-76
2022/01/16 08:29:59;;;;;;;90.55;44.95;;;4.70;99.90;;;;;;5080175;28;20067;-76
2022/01/16 08:32:24;;;;;;;79.18;41.70;;;4.70;99.90;;;;;;5073399;28;20446;-77
2022/01/16 08:34:50;;;;;;;85.38;42.35;;;4.80;99.90;;;;;;5073028;28;20075;-76
2022/01/16 08:37:16;;;;;;;78.00;40.25;;;4.80;99.90;;;;;;5074153;28;20040;-73
2022/01/16 08:39:41;;;;;;;76.93;42.08;;;4.80;99.90;;;;;;5057670;28;20036;-78
2022/01/16 08:42:07;;;;;;;81.75;42.42;;;4.80;99.90;;;;;;5072045;28;20036;-76
2022/01/16 08:44:33;;;;;;;78.95;41.33;;;4.80;99.90;;;;;;5057780;28;20476;-76
2022/01/16 08:46:59;;;;;;;84.50;40.78;;;4.80;99.90;;;;;;5057092;28;20153;-77
2022/01/16 08:49:24;;;;;;;75.53;40.55;;;4.90;99.90;;;;;;5056982;28;20052;-78
2022/01/16 08:51:50;;;;;;;75.60;38.35;;;4.90;99.90;;;;;;5089350;28;20058;-75
2022/01/16 08:54:15;;;;;;;68.03;39.00;;;4.90;99.90;;;;;;5074592;28;20048;-74
2022/01/16 08:56:41;;;;;;;72.53;40.08;;;4.90;99.90;;;;;;5073182;28;20036;-76
2022/01/16 08:59:08;;;;;;;71.80;39.58;;;5.00;99.90;;;;;;5074832;28;20051;-70
2022/01/16 09:01:34;;;;;;;65.82;37.88;;;5.10;99.90;;;;;;5057232;28;20135;-76
2022/01/16 09:03:59;;;;;;;66.03;37.78;;;5.00;99.90;;;;;;5073503;28;20047;-81
2022/01/16 09:06:27;;;;;;;63.45;37.45;;;5.10;99.90;;;;;;5073984;28;20481;-82
2022/01/16 09:08:53;;;;;;;69.70;37.80;;;5.10;99.90;;;;;;5073293;28;20040;-77
2022/01/16 09:11:23;;;;;;;63.05;38.13;;;5.20;99.90;;;;;;5056103;28;20085;-77
2022/01/16 09:13:49;;;;;;;56.85;34.15;;;5.20;99.90;;;;;;5073768;28;20054;-80
2022/01/16 09:16:15;;;;;;;55.28;35.20;;;5.20;99.90;;;;;;5056110;28;20048;-75
2022/01/16 09:18:40;;;;;;;61.80;34.55;;;5.30;99.90;;;;;;5074177;28;20135;-76
2022/01/16 09:21:06;;;;;;;57.47;33.10;;;5.30;99.90;;;;;;5073853;28;20044;-70
2022/01/16 09:23:31;;;;;;;52.90;34.50;;;5.40;99.90;;;;;;5073030;28;20048;-80
2022/01/16 09:25:57;;;;;;;53.47;33.22;;;5.40;99.90;;;;;;5073382;28;20089;-77
2022/01/16 09:28:23;;;;;;;53.38;33.17;;;5.50;99.90;;;;;;5092336;28;20044;-80
2022/01/16 09:30:49;;;;;;;50.67;32.90;;;5.50;99.90;;;;;;5072602;28;20408;-79
2022/01/16 09:33:15;;;;;;;51.90;33.45;;;5.50;99.90;;;;;;5056947;28;20043;-76
2022/01/16 09:35:41;;;;;;;53.53;33.40;;;5.60;99.90;;;;;;5055476;28;20048;-76
2022/01/16 09:38:07;;;;;;;55.38;33.58;;;5.60;99.90;;;;;;5062934;28;20063;-73
2022/01/16 09:40:34;;;;;;;49.55;31.38;;;5.60;99.90;;;;;;5053626;28;20049;-76
2022/01/16 09:43:02;;;;;;;51.20;32.80;;;5.60;99.90;;;;;;5073037;28;20102;-76
2022/01/16 09:45:27;;;;;;;46.88;30.70;;;5.60;99.90;;;;;;5055737;28;20055;-72
2022/01/16 09:47:53;;;;;;;48.60;32.10;;;5.70;99.90;;;;;;5071901;28;20056;-77
2022/01/16 09:50:21;;;;;;;52.50;31.33;;;5.60;99.90;;;;;;5056335;28;20047;-76
2022/01/16 09:52:48;;;;;;;53.42;31.98;;;5.70;99.90;;;;;;5056329;28;20043;-69
2022/01/16 09:55:14;;;;;;;50.80;32.05;;;5.70;99.90;;;;;;5072624;28;20051;-77
2022/01/16 09:57:40;;;;;;;53.47;30.00;;;5.70;99.90;;;;;;5073226;28;20036;-76
2022/01/16 10:00:10;;;;;;;45.90;30.02;;;5.70;99.90;;;;;;5072697;28;20572;-77
2022/01/16 10:02:35;;;;;;;43.33;29.88;;;5.70;99.90;;;;;;5072485;28;20488;-73
2022/01/16 10:05:07;;;;;;;50.80;30.23;;;5.70;99.90;;;;;;5055816;28;20071;-78
2022/01/16 10:07:40;;;;;;;47.08;28.45;;;5.70;99.90;;;;;;5072562;28;20043;-78
2022/01/16 10:10:14;;;;;;;43.78;28.40;;;5.70;99.90;;;;;;5073337;28;20044;-78
2022/01/16 10:12:47;;;;;;;41.47;25.13;;;5.70;99.90;;;;;;5070102;28;20826;-77
2022/01/16 10:15:27;;;;;;;42.10;27.20;;;5.80;99.90;;;;;;5072735;28;20054;-71
2022/01/16 10:17:59;;;;;;;38.10;25.67;;;5.80;99.90;;;;;;5053447;28;20051;-78
2022/01/16 10:20:26;;;;;;;38.83;25.08;;;5.80;99.90;;;;;;5071370;28;20145;-78
2022/01/16 10:22:56;;;;;;;38.90;24.73;;;5.80;99.90;;;;;;5056830;28;20068;-78
2022/01/16 10:25:45;;;;;;;34.33;24.23;;;5.80;99.90;;;;;;5070975;28;20499;-72
2022/01/16 10:28:20;;;;;;;36.28;23.10;;;5.90;99.90;;;;;;5071244;28;20043;-79
2022/01/16 10:30:51;;;;;;;38.53;22.67;;;5.90;99.90;;;;;;5053779;28;20052;-79
2022/01/16 10:33:19;;;;;;;34.65;21.73;;;5.90;99.90;;;;;;5070636;28;20075;-69
2022/01/16 10:35:47;;;;;;;34.75;22.33;;;5.90;99.90;;;;;;5072810;28;20400;-77
2022/01/16 10:38:27;;;;;;;32.72;21.38;;;5.90;99.90;;;;;;5061768;28;20047;-76
2022/01/16 10:40:55;;;;;;;29.42;20.70;;;6.00;99.90;;;;;;5072178;28;20048;-77
2022/01/16 10:43:38;;;;;;;31.75;21.70;;;5.90;99.90;;;;;;5069559;28;20076;-77
2022/01/16 10:46:05;;;;;;;34.25;21.02;;;6.00;99.90;;;;;;5054903;28;20048;-76
2022/01/16 10:48:32;;;;;;;33.15;19.60;;;6.00;99.90;;;;;;5072555;28;20056;-77
2022/01/16 10:50:58;;;;;;;23.25;18.20;;;6.00;99.90;;;;;;5070144;28;20481;-71
2022/01/16 10:53:26;;;;;;;29.25;19.05;;;6.10;99.90;;;;;;5070133;28;20055;-77
2022/01/16 10:55:57;;;;;;;26.58;18.92;;;6.10;99.90;;;;;;5089648;28;20044;-71
2022/01/16 10:58:37;;;;;;;28.10;18.17;;;6.10;99.90;;;;;;5076423;28;20047;-76
2022/01/16 11:01:10;;;;;;;26.85;18.08;;;6.10;99.90;;;;;;5093983;28;20097;-77
2022/01/16 11:03:47;;;;;;;25.85;17.83;;;6.20;99.90;;;;;;5076987;28;20489;-71
2022/01/16 11:06:17;;;;;;;27.60;16.90;;;6.10;99.90;;;;;;5059732;28;20243;-77
2022/01/16 11:08:51;;;;;;;21.08;14.25;;;6.20;99.90;;;;;;5076059;28;20044;-71
2022/01/16 11:11:19;;;;;;;24.42;14.77;;;6.10;99.90;;;;;;5076307;28;20052;-70
2022/01/16 11:13:45;;;;;;;25.67;14.27;;;6.20;99.90;;;;;;5076813;28;20431;-75
2022/01/16 11:16:11;;;;;;;17.98;12.93;;;6.20;99.90;;;;;;5059184;28;20090;-76
2022/01/16 11:18:40;;;;;;;21.10;13.52;;;6.20;99.90;;;;;;5076295;28;20059;-71
2022/01/16 11:24:12;;;;;;;18.63;11.73;;;6.30;99.90;;;;;;5075684;28;20513;-72
2022/01/16 11:26:35;;;;;;;17.25;10.95;;;6.30;99.90;;;;;;5076027;28;20091;-76
2022/01/16 11:29:01;;;;;;;17.20;9.82;;;6.30;99.90;;;;;;5075624;28;20039;-76
2022/01/16 11:31:27;;;;;;;13.77;8.23;;;6.40;99.90;;;;;;5076309;28;20054;-71
2022/01/16 11:33:53;;;;;;;14.85;7.20;;;6.40;99.90;;;;;;5075792;28;20044;-76
2022/01/16 11:36:21;;;;;;;10.18;5.57;;;6.50;99.90;;;;;;5075000;28;20043;-77
2022/01/16 11:38:57;;;;;;;11.38;5.47;;;6.50;99.90;;;;;;5057486;28;20488;-68
2022/01/16 11:41:32;;;;;;;10.98;5.53;;;6.60;99.90;;;;;;5056609;28;20041;-75
2022/01/16 11:43:59;;;;;;;11.43;5.15;;;6.60;99.90;;;;;;5055914;28;20041;-75
2022/01/16 11:46:30;;;;;;;9.98;5.18;;;6.60;99.90;;;;;;5058965;28;20052;-76
2022/01/16 11:49:02;;;;;;;10.32;4.80;;;6.60;99.90;;;;;;5075014;28;20052;-73
2022/01/16 11:51:38;;;;;;;12.07;4.93;;;6.70;99.90;;;;;;5075721;28;20105;-75
2022/01/16 11:54:04;;;;;;;10.35;5.43;;;6.70;99.90;;;;;;5055939;28;20118;-71
2022/01/16 11:56:39;;;;;;;10.50;5.38;;;6.80;99.90;;;;;;5073063;28;20052;-76
2022/01/16 11:59:11;;;;;;;8.27;5.00;;;6.80;99.90;;;;;;5074917;28;20561;-72
2022/01/16 12:02:00;;;;;;;10.45;5.38;;;6.80;99.90;;;;;;5074942;28;20044;-76
2022/01/16 12:04:29;;;;;;;9.95;5.28;;;6.80;99.90;;;;;;5052367;28;20033;-70
2022/01/16 12:06:54;;;;;;;10.60;5.22;;;6.90;99.90;;;;;;5073068;28;20500;-75
2022/01/16 12:09:39;;;;;;;11.55;6.40;;;7.00;99.90;;;;;;5074876;28;20044;-75
2022/01/16 12:12:16;;;;;;;10.20;5.45;;;7.00;99.90;;;;;;5050089;28;20045;-75
2022/01/16 12:14:56;;;;;;;14.05;6.18;;;7.10;99.90;;;;;;5055605;28;20067;-70
2022/01/16 12:17:42;;;;;;;10.40;6.30;;;7.10;99.90;;;;;;5043713;28;20162;-76
2022/01/16 12:20:17;;;;;;;18.10;6.35;;;7.20;99.90;;;;;;5068497;28;20048;-74
2022/01/16 12:23:05;;;;;;;12.10;6.82;;;7.20;99.90;;;;;;5063207;28;20123;-69
2022/01/16 12:25:49;;;;;;;12.20;6.97;;;7.20;99.90;;;;;;5074547;28;20135;-75
2022/01/16 12:28:15;;;;;;;10.88;6.45;;;7.20;99.90;;;;;;5073639;28;20093;-76
2022/01/16 12:30:55;;;;;;;13.75;8.02;;;7.20;99.90;;;;;;5072371;28;20047;-75
2022/01/16 12:33:37;;;;;;;14.60;6.88;;;7.20;99.90;;;;;;5064642;28;20073;-76
2022/01/16 12:36:08;;;;;;;12.80;6.80;;;7.20;99.90;;;;;;5075088;28;20079;-69
2022/01/16 12:38:37;;;;;;;17.75;7.47;;;7.30;99.90;;;;;;5072742;28;20579;-75
2022/01/16 12:41:08;;;;;;;16.27;6.93;;;7.30;99.90;;;;;;5070118;28;20075;-76
2022/01/16 12:43:41;;;;;;;17.25;7.93;;;7.30;99.90;;;;;;5067398;28;20044;-71
2022/01/16 12:46:09;;;;;;;12.23;7.05;;;7.30;99.90;;;;;;5066375;28;20052;-71
2022/01/16 12:48:41;;;;;;;13.32;7.22;;;7.30;99.90;;;;;;5065851;28;20032;-77
2022/01/16 12:51:07;;;;;;;15.60;6.97;;;7.30;99.90;;;;;;5071305;28;20097;-77
2022/01/16 12:53:35;;;;;;;11.13;7.22;;;7.30;99.90;;;;;;5056467;28;20111;-70
2022/01/16 12:56:34;;;;;;;12.35;6.20;;;7.30;99.90;;;;;;5067883;28;20067;-76
2022/01/16 12:59:15;;;;;;;11.18;6.45;;;7.30;99.90;;;;;;5065795;28;20069;-76
2022/01/16 13:01:51;;;;;;;13.32;5.95;;;7.40;99.90;;;;;;5068192;28;20098;-76
2022/01/16 13:04:18;;;;;;;10.80;6.50;;;7.30;99.90;;;;;;5067974;28;20052;-70
2022/01/16 13:06:44;;;;;;;10.98;6.20;;;7.40;99.90;;;;;;5073332;28;20400;-76
2022/01/16 13:09:11;;;;;;;12.25;6.07;;;7.30;99.90;;;;;;5052129;28;20096;-77
2022/01/16 13:11:45;;;;;;;12.70;5.72;;;7.30;99.90;;;;;;5073243;28;20044;-70
2022/01/16 13:14:14;;;;;;;13.23;5.53;;;7.40;99.90;;;;;;5070451;28;20384;-77
2022/01/16 13:16:45;;;;;;;11.95;6.20;;;7.40;99.90;;;;;;5073436;28;20126;-76
2022/01/16 13:19:38;;;;;;;16.08;6.30;;;7.30;99.90;;;;;;5073358;28;20036;-76
2022/01/16 13:22:12;;;;;;;9.60;5.43;;;7.30;99.90;;;;;;5064075;28;20134;-71
2022/01/16 13:24:39;;;;;;;11.85;5.78;;;7.30;99.90;;;;;;5056870;28;20040;-79